createdAt,value
2019-03-03T00:00:41.841Z,4.40
2019-03-03T00:05:49.252Z,3.96
2019-03-03T00:10:56.425Z,4.28
2019-03-03T00:16:04.739Z,4.29
2019-03-03T00:21:11.780Z,3.31
2019-03-03T00:26:20.067Z,3.51
2019-03-03T00:31:28.235Z,3.58
2019-03-03T00:36:35.386Z,3.46
2019-03-03T00:41:43.664Z,3.32
2019-03-03T00:46:50.972Z,3.28
2019-03-03T00:52:11.140Z,3.45
2019-03-03T00:56:58.517Z,3.72
2019-03-03T01:07:06.630Z,3.64
2019-03-03T01:12:13.819Z,3.85
2019-03-03T01:17:39.047Z,2.98
2019-03-03T01:22:26.298Z,3.75
2019-03-03T01:27:33.694Z,3.17
2019-03-03T01:32:41.942Z,4.11
2019-03-03T01:38:02.288Z,3.35
2019-03-03T01:42:49.355Z,3.62
2019-03-03T01:47:57.649Z,3.29
2019-03-03T01:53:04.792Z,3.56
2019-03-03T01:58:13.081Z,3.55
2019-03-03T02:03:20.284Z,3.04
2019-03-03T02:08:27.499Z,3.62
2019-03-03T02:13:35.715Z,3.31
2019-03-03T02:18:42.961Z,3.91
2019-03-03T02:23:50.999Z,3.26
2019-03-03T02:28:59.374Z,3.40
2019-03-03T02:34:06.658Z,3.36
2019-03-03T02:39:15.057Z,3.09
2019-03-03T02:44:22.318Z,3.07
2019-03-03T02:49:30.515Z,2.90
2019-03-03T02:54:37.614Z,3.39
2019-03-03T02:59:45.911Z,2.94
2019-03-03T03:04:52.986Z,3.54
2019-03-03T03:10:01.611Z,3.43
2019-03-03T03:16:14.487Z,4.08
2019-03-03T03:21:22.898Z,4.03
2019-03-03T03:26:30.883Z,3.27
2019-03-03T03:31:39.199Z,2.62
2019-03-03T03:36:46.447Z,2.93
2019-03-03T03:41:53.782Z,2.92
2019-03-03T03:47:01.026Z,2.83
2019-03-03T03:52:08.467Z,3.16
2019-03-03T03:57:15.732Z,3.23
2019-03-03T04:02:23.134Z,3.26
2019-03-03T04:07:31.054Z,3.44
2019-03-03T04:12:39.327Z,3.51
2019-03-03T04:22:51.826Z,3.57
2019-03-03T04:27:59.910Z,2.42
2019-03-03T04:33:08.287Z,3.13
2019-03-03T04:38:15.546Z,2.86
2019-03-03T04:43:22.990Z,3.32
2019-03-03T04:48:31.225Z,3.68
2019-03-03T04:53:38.692Z,2.73
2019-03-03T04:58:45.922Z,2.45
2019-03-03T05:03:53.509Z,2.65
2019-03-03T05:09:00.581Z,2.23
2019-03-03T05:14:08.876Z,2.35
2019-03-03T05:19:28.996Z,3.51
2019-03-03T05:24:16.335Z,3.02
2019-03-03T05:29:23.550Z,3.01
2019-03-03T05:34:31.001Z,3.12
2019-03-03T05:39:38.198Z,2.91
2019-03-03T05:44:46.323Z,2.80
2019-03-03T05:49:55.643Z,2.71
2019-03-03T05:55:03.031Z,3.25
2019-03-03T06:00:10.262Z,3.32
2019-03-03T06:05:17.596Z,2.71
2019-03-03T06:10:24.739Z,3.84
2019-03-03T06:15:33.239Z,4.17
2019-03-03T06:25:45.905Z,3.03
2019-03-03T06:30:53.002Z,2.90
2019-03-03T06:36:01.360Z,2.59
2019-03-03T06:41:08.611Z,2.71
2019-03-03T06:46:15.977Z,2.94
2019-03-03T06:51:23.247Z,2.72
2019-03-03T06:56:32.735Z,2.96
2019-03-03T07:01:40.113Z,2.78
2019-03-03T07:07:00.189Z,3.06
2019-03-03T07:11:48.425Z,3.11
2019-03-03T07:16:55.686Z,3.79
2019-03-03T07:22:15.656Z,2.95
2019-03-03T07:27:04.102Z,2.68
2019-03-03T07:32:11.365Z,2.77
2019-03-03T07:37:18.583Z,3.38
2019-03-03T07:42:26.653Z,2.79
2019-03-03T07:47:36.585Z,3.27
2019-03-03T07:52:42.746Z,3.18
2019-03-03T07:57:50.069Z,3.37
2019-03-03T08:02:57.298Z,2.88
2019-03-03T08:08:04.586Z,3.36
2019-03-03T08:13:11.919Z,3.05
2019-03-03T08:18:19.193Z,3.19
2019-03-03T08:23:27.414Z,2.87
2019-03-03T08:28:34.702Z,3.11
2019-03-03T08:33:54.819Z,3.14
2019-03-03T08:38:54.902Z,3.59
2019-03-03T08:43:43.142Z,3.56
2019-03-03T08:48:50.501Z,3.02
2019-03-03T08:53:57.599Z,3.65
2019-03-03T08:59:06.137Z,3.15
2019-03-03T09:04:14.258Z,3.52
2019-03-03T09:09:22.750Z,3.86
2019-03-03T09:14:32.748Z,3.81
2019-03-03T09:19:31.004Z,3.56
2019-03-03T09:24:44.200Z,4.67
2019-03-03T09:29:41.692Z,3.20
2019-03-03T09:34:50.181Z,2.72
2019-03-03T09:40:08.830Z,3.32
2019-03-03T09:44:57.387Z,3.12
2019-03-03T09:50:05.678Z,3.02
2019-03-03T09:55:25.785Z,2.94
2019-03-03T10:00:13.120Z,2.92
2019-03-03T10:05:20.238Z,3.09
2019-03-03T10:10:28.756Z,3.62
2019-03-03T10:15:35.959Z,4.03
2019-03-03T10:20:43.476Z,4.13
2019-03-03T10:25:53.028Z,3.50
2019-03-03T10:30:51.369Z,2.77
2019-03-03T10:35:58.426Z,2.08
2019-03-03T10:46:07.377Z,2.26
2019-03-03T10:51:17.002Z,2.04
2019-03-03T10:56:23.465Z,1.95
2019-03-03T11:01:30.828Z,1.70
2019-03-03T11:06:39.252Z,1.90
2019-03-03T11:16:47.352Z,1.83
2019-03-03T11:21:54.758Z,1.46
2019-03-03T11:27:01.812Z,1.47
2019-03-03T11:38:49.041Z,0.98
2019-03-03T11:43:36.248Z,1.14
2019-03-03T11:48:57.373Z,1.79
2019-03-03T11:53:44.765Z,1.28
2019-03-03T11:58:51.877Z,1.01
2019-03-03T12:04:00.043Z,1.06
2019-03-03T12:09:08.287Z,0.98
2019-03-03T12:14:28.416Z,1.32
2019-03-03T12:19:16.478Z,1.10
2019-03-03T12:24:24.783Z,1.23
2019-03-03T12:29:31.841Z,1.15
2019-03-03T12:34:40.189Z,1.29
2019-03-03T12:39:49.005Z,1.51
2019-03-03T12:44:56.185Z,1.60
2019-03-03T12:50:04.416Z,1.54
2019-03-03T12:55:11.647Z,1.71
2019-03-03T13:00:19.777Z,1.73
2019-03-03T13:05:28.158Z,1.73
2019-03-03T13:10:35.259Z,1.60
2019-03-03T13:15:43.613Z,2.01
2019-03-03T13:20:51.548Z,2.03
2019-03-03T13:25:59.716Z,2.21
2019-03-03T13:31:07.920Z,2.11
2019-03-03T13:36:15.215Z,2.36
2019-03-03T13:41:23.411Z,2.56
2019-03-03T13:46:31.871Z,3.01
2019-03-03T13:51:39.025Z,2.73
2019-03-03T13:56:47.867Z,2.58
2019-03-03T14:01:55.072Z,3.23
2019-03-03T14:07:02.612Z,3.46
2019-03-03T14:12:09.786Z,3.39
2019-03-03T14:17:18.162Z,3.14
2019-03-03T14:22:25.489Z,3.58
2019-03-03T14:27:32.728Z,4.50
2019-03-03T14:32:40.918Z,4.41
2019-03-03T14:37:48.276Z,3.63
2019-03-03T14:42:55.363Z,4.36
2019-03-03T14:48:03.515Z,5.21
2019-03-03T14:53:11.587Z,4.62
2019-03-03T14:58:20.456Z,4.55
2019-03-03T15:03:27.470Z,4.67
2019-03-03T15:08:35.705Z,4.45
2019-03-03T15:13:43.909Z,5.47
2019-03-03T15:18:51.250Z,4.95
2019-03-03T15:23:58.334Z,5.58
2019-03-03T15:29:07.469Z,4.65
2019-03-03T15:34:14.528Z,5.94
2019-03-03T15:39:22.868Z,5.08
2019-03-03T15:44:31.033Z,5.80
2019-03-03T15:49:38.520Z,5.64
2019-03-03T15:54:45.644Z,5.82
2019-03-03T16:00:06.899Z,4.67
2019-03-03T16:04:53.932Z,3.52
2019-03-03T16:10:02.434Z,3.40
2019-03-03T16:15:09.638Z,3.06
2019-03-03T16:20:29.825Z,2.95
2019-03-03T16:25:18.008Z,2.40
2019-03-03T16:30:25.380Z,2.74
2019-03-03T16:35:33.639Z,1.88
2019-03-03T16:40:41.017Z,2.08
2019-03-03T16:45:48.122Z,2.51
2019-03-03T16:50:56.414Z,1.88
2019-03-03T16:56:04.656Z,1.84
2019-03-03T17:01:12.011Z,2.34
2019-03-03T17:06:19.198Z,2.59
2019-03-03T17:11:27.481Z,1.93
2019-03-03T17:16:35.580Z,2.67
2019-03-03T17:21:43.802Z,2.68
2019-03-03T17:26:51.970Z,3.41
2019-03-03T17:37:20.793Z,2.26
2019-03-03T17:42:08.207Z,2.49
2019-03-03T17:47:16.272Z,2.74
2019-03-03T17:52:23.704Z,2.16
2019-03-03T17:57:43.853Z,2.13
2019-03-03T18:02:30.972Z,1.97
2019-03-03T18:07:39.343Z,2.15
2019-03-03T18:22:51.357Z,1.52
2019-03-03T18:33:05.130Z,1.75
2019-03-03T18:38:12.227Z,1.57
2019-03-03T18:43:20.667Z,1.24
2019-03-03T18:48:27.944Z,1.33
2019-03-03T18:53:35.440Z,1.77
2019-03-03T18:58:42.620Z,1.85
2019-03-03T19:03:50.695Z,2.13
2019-03-03T19:08:58.869Z,1.67
2019-03-03T19:14:27.971Z,2.34
2019-03-03T19:19:06.551Z,1.29
2019-03-03T19:24:15.175Z,1.51
2019-03-03T19:29:22.321Z,1.29
2019-03-03T19:34:44.137Z,1.06
2019-03-03T19:39:31.210Z,1.22
2019-03-03T19:44:52.429Z,1.37
2019-03-03T19:49:39.672Z,1.42
2019-03-03T19:54:47.176Z,1.63
2019-03-03T19:59:54.389Z,2.03
2019-03-03T20:05:02.775Z,1.62
2019-03-03T20:10:10.734Z,2.05
2019-03-03T20:15:19.158Z,1.82
2019-03-03T20:20:26.382Z,2.19
2019-03-03T20:25:33.875Z,2.71
2019-03-03T20:30:53.988Z,1.69
2019-03-03T20:35:41.244Z,1.73
2019-03-03T20:40:48.461Z,1.34
2019-03-03T20:45:55.836Z,0.89
2019-03-03T20:51:03.099Z,0.82
2019-03-03T20:56:10.428Z,0.65
2019-03-03T21:01:30.627Z,0.95
2019-03-03T21:06:18.007Z,0.96
2019-03-03T21:11:25.245Z,0.73
2019-03-03T21:16:33.500Z,0.71
2019-03-03T21:21:40.757Z,1.18
2019-03-03T21:26:48.205Z,1.04
2019-03-03T21:31:56.404Z,1.78
2019-03-03T21:37:04.595Z,0.98
2019-03-03T21:42:11.718Z,0.70
2019-03-03T21:47:19.963Z,0.85
2019-03-03T21:52:28.214Z,0.64
2019-03-03T21:57:35.588Z,0.70
2019-03-03T22:02:55.728Z,0.86
2019-03-03T22:07:44.056Z,0.78
2019-03-03T22:12:52.279Z,0.76
2019-03-03T22:17:59.725Z,0.78
2019-03-03T22:23:06.760Z,0.93
2019-03-03T22:28:27.895Z,0.80
2019-03-03T22:33:15.983Z,1.16
2019-03-03T22:38:24.752Z,0.97
2019-03-03T22:43:31.812Z,1.12
2019-03-03T22:48:40.113Z,1.23
2019-03-03T22:53:47.215Z,1.24
2019-03-03T22:59:08.274Z,1.43
2019-03-03T23:03:56.470Z,1.23
2019-03-03T23:14:11.937Z,1.14
2019-03-03T23:19:20.281Z,1.45
2019-03-03T23:24:27.389Z,1.08
2019-03-03T23:29:35.656Z,1.39
2019-03-03T23:34:42.888Z,0.71
2019-03-03T23:39:50.049Z,0.79
2019-03-03T23:44:58.280Z,0.64
2019-03-03T23:50:18.762Z,1.05
2019-03-03T23:55:15.998Z,1.29
